Weather reports worldwide

Advertisment
Aosta, Italy (16054): temperature & dewpoint: 14.10.2018 16:00:00 - 20.10.2018 16:00:00 (CEST)Aosta, Italy (16054): wind speed: 14.10.2018 16:00:00 - 20.10.2018 16:00:00 (CEST)Aosta, Italy (16054): wind direction: 14.10.2018 16:00:00 - 20.10.2018 16:00:00 (CEST)Aosta, Italy (16054): visibility: 14.10.2018 16:00:00 - 20.10.2018 16:00:00 (CEST)Aosta, Italy (16054): precipitation: 14.10.2018 16:00:00 - 20.10.2018 16:00:00 (CEST)
Date & Time tt [°C] td [°C] ff [km/h] ff [kn] dd vv [km] rr [mm]
20.10.2018 16:00:00 22,0 9,0 8 4 SE 10 -
20.10.2018 15:00:00 21,8 8,6 4 2 - 10 -
20.10.2018 14:00:00 20,3 8,6 5 3 - 10 0,0
20.10.2018 13:00:00 18,2 9,7 4 2 - 10 -
20.10.2018 12:00:00 16,0 9,6 4 2 - 10 -
20.10.2018 11:00:00 11,2 9,6 5 3 S 10 -
20.10.2018 10:00:00 9,2 8,4 4 2 - 10 -
20.10.2018 09:00:00 7,1 6,2 2 1 - 10 -
20.10.2018 08:00:00 6,1 4,6 2 1 - 10 0,0
20.10.2018 07:00:00 7,1 5,7 0 0 N - -
20.10.2018 06:00:00 6,8 5,1 0 0 N - -
20.10.2018 05:00:00 7,9 6,0 0 0 N - -
20.10.2018 04:00:00 8,1 6,7 0 0 N - -
20.10.2018 03:00:00 8,7 7,0 0 0 N - -
20.10.2018 02:00:00 8,6 6,5 0 0 N - 0,0
20.10.2018 01:00:00 9,2 7,0 0 0 N - -
20.10.2018 00:00:00 10,1 7,8 0 0 N - -
19.10.2018 23:00:00 12,2 9,4 0 0 N - -
19.10.2018 22:00:00 13,3 9,9 2 1 S - -
19.10.2018 21:00:00 13,4 9,8 0 0 N - -
19.10.2018 20:00:00 14,9 10,3 4 2 WSW - -
19.10.2018 19:00:00 18,7 11,7 8 4 ENE 10 -
19.10.2018 18:00:00 20,6 10,6 15 8 E 10 -
19.10.2018 17:00:00 22,2 10,6 11 6 E 10 -
19.10.2018 16:00:00 22,3 9,7 4 2 - 10 -
19.10.2018 15:00:00 21,8 9,0 5 3 - 10 -
19.10.2018 14:00:00 20,8 9,6 0 0 N 10 0,0
19.10.2018 13:00:00 19,0 9,4 4 2 - 10 -
19.10.2018 12:00:00 16,8 10,1 5 3 SW 10 -
19.10.2018 11:00:00 12,9 10,8 4 2 - 10 -
19.10.2018 10:00:00 10,3 9,8 2 1 - 10 -
19.10.2018 09:00:00 7,0 5,9 4 2 - 10 -
19.10.2018 08:00:00 6,6 5,5 2 1 - 10 0,0
19.10.2018 07:00:00 6,5 5,1 0 0 N - -
19.10.2018 06:00:00 6,9 5,2 0 0 N - -
19.10.2018 05:00:00 7,6 6,2 0 0 N - -
19.10.2018 04:00:00 7,9 6,5 0 0 N - -
19.10.2018 03:00:00 7,8 5,9 0 0 N - -
19.10.2018 02:00:00 8,6 6,7 0 0 N - 0,0
19.10.2018 01:00:00 9,2 7,3 0 0 N - -
19.10.2018 00:00:00 9,6 7,0 0 0 N - -
18.10.2018 23:00:00 11,4 8,2 0 0 N - -
18.10.2018 22:00:00 12,6 9,4 4 2 SW - -
18.10.2018 21:00:00 13,4 9,6 5 3 SW - -
18.10.2018 20:00:00 13,9 8,7 0 0 N - 0,0
18.10.2018 19:00:00 17,7 10,0 0 0 N - -
18.10.2018 18:00:00 20,0 11,4 15 8 E 10 -
18.10.2018 17:00:00 20,7 10,4 21 11 E 10 -
18.10.2018 16:00:00 21,9 10,0 18 10 E 10 -
18.10.2018 15:00:00 21,9 9,7 13 7 E 10 -
18.10.2018 14:00:00 20,7 9,5 5 3 S 10 0,0
18.10.2018 13:00:00 18,9 9,9 4 2 - 10 -
18.10.2018 12:00:00 17,0 11,0 4 2 - 10 -
18.10.2018 11:00:00 13,5 11,0 2 1 - 10 -
18.10.2018 10:00:00 10,8 10,5 2 1 - 10 -
18.10.2018 09:00:00 7,7 6,9 4 2 - 9 -
18.10.2018 08:00:00 7,7 6,6 0 0 N 7 0,0
18.10.2018 07:00:00 7,9 6,2 0 0 N - -
18.10.2018 06:00:00 8,5 6,6 0 0 N - -
18.10.2018 05:00:00 9,7 7,8 0 0 N - -
18.10.2018 04:00:00 10,8 8,2 0 0 N - -
18.10.2018 03:00:00 12,3 9,8 0 0 N - -
18.10.2018 02:00:00 12,8 10,8 0 0 N - 0,0
18.10.2018 01:00:00 12,1 9,8 0 0 N - -
18.10.2018 00:00:00 12,8 10,1 0 0 N - -
17.10.2018 23:00:00 13,8 11,1 0 0 N - -
17.10.2018 22:00:00 14,1 10,7 0 0 N - -
17.10.2018 21:00:00 14,7 10,9 0 0 N - -
17.10.2018 20:00:00 15,7 10,6 0 0 N - 0,0
17.10.2018 19:00:00 16,8 11,0 11 6 E 10 -
17.10.2018 18:00:00 18,3 10,1 15 8 E 10 -
17.10.2018 17:00:00 18,7 9,7 5 3 S 10 -
17.10.2018 16:00:00 20,5 10,5 9 5 - 10 -
17.10.2018 15:00:00 19,8 10,4 11 6 ESE 10 -
17.10.2018 14:00:00 19,6 9,1 5 3 SSE 10 0,0
17.10.2018 13:00:00 17,8 9,9 8 4 E 10 -
17.10.2018 12:00:00 15,4 10,1 13 7 E 10 -
17.10.2018 11:00:00 12,3 9,5 8 4 SSE 10 -
17.10.2018 10:00:00 9,6 9,0 4 2 - 7 -
17.10.2018 09:00:00 7,4 6,5 4 2 - 10 -
17.10.2018 08:00:00 7,1 6,3 5 3 SSW 8 0,0
17.10.2018 07:00:00 6,2 4,8 2 1 SSE - -
17.10.2018 06:00:00 7,2 6,1 0 0 N - -
17.10.2018 05:00:00 7,0 5,8 4 2 SW - -
17.10.2018 04:00:00 7,1 5,1 0 0 N - -
17.10.2018 03:00:00 8,7 7,8 0 0 N - -
17.10.2018 02:00:00 8,5 6,6 0 0 N - 0,0
17.10.2018 01:00:00 9,3 7,7 0 0 N - -
17.10.2018 00:00:00 9,8 7,2 0 0 N - -
16.10.2018 23:00:00 11,2 8,6 0 0 N - -
16.10.2018 22:00:00 10,9 7,9 0 0 N - -
16.10.2018 21:00:00 11,4 8,9 0 0 N - -
16.10.2018 20:00:00 12,4 8,4 0 0 N - 0,0
16.10.2018 19:00:00 13,5 7,4 0 0 N 10 -
16.10.2018 18:00:00 17,7 9,0 5 3 ESE 10 -
16.10.2018 17:00:00 19,5 9,6 4 2 - 10 -
16.10.2018 16:00:00 18,2 10,3 5 3 SSW 10 -
16.10.2018 15:00:00 17,7 9,3 8 4 - 10 -
16.10.2018 14:00:00 18,2 9,7 4 2 - 10 0,0
16.10.2018 13:00:00 17,8 9,9 8 4 ESE 10 -
16.10.2018 12:00:00 15,7 10,4 5 3 ESE 10 -
16.10.2018 11:00:00 13,8 10,7 2 1 - 10 -
16.10.2018 10:00:00 11,5 10,4 4 2 - 10 -
16.10.2018 09:00:00 10,5 9,4 0 0 N 8 -
16.10.2018 08:00:00 9,4 7,7 2 1 - 10 0,0
16.10.2018 07:00:00 10,1 8,5 0 0 N - -
16.10.2018 06:00:00 10,8 9,4 0 0 N - -
16.10.2018 05:00:00 10,6 9,5 0 0 N - -
16.10.2018 04:00:00 10,2 9,1 0 0 N - -
16.10.2018 03:00:00 9,6 8,3 0 0 N - -
16.10.2018 02:00:00 9,0 7,1 0 0 N - 0,0
16.10.2018 01:00:00 10,6 8,7 0 0 N - -
16.10.2018 00:00:00 10,7 8,1 0 0 N - -
15.10.2018 23:00:00 12,0 9,7 0 0 N - -
15.10.2018 22:00:00 12,1 9,4 0 0 N - -
15.10.2018 21:00:00 12,3 9,1 0 0 N - -
15.10.2018 20:00:00 13,5 10,1 0 0 N - -
15.10.2018 19:00:00 14,2 10,4 4 2 - 10 -
15.10.2018 18:00:00 15,8 10,7 2 1 - 10 -
15.10.2018 17:00:00 16,0 10,0 4 2 - 10 -
15.10.2018 16:00:00 16,1 9,9 2 1 - 10 -
15.10.2018 15:00:00 15,5 10,0 4 2 - 10 -
15.10.2018 14:00:00 14,2 9,8 4 2 - 10 -
15.10.2018 13:00:00 13,2 10,0 5 3 E 10 -
15.10.2018 12:00:00 12,7 9,7 4 2 - 10 -
15.10.2018 11:00:00 11,9 9,8 0 0 N 10 -
15.10.2018 10:00:00 10,7 9,1 4 2 - 10 -
15.10.2018 09:00:00 9,9 8,5 0 0 N - -
15.10.2018 08:00:00 8,7 6,6 4 2 - 10 0,0
15.10.2018 07:00:00 9,1 7,0 0 0 N - -
15.10.2018 06:00:00 9,5 7,8 0 0 N - -
15.10.2018 05:00:00 8,9 7,5 0 0 N - -
15.10.2018 04:00:00 7,9 6,2 0 0 N - -
15.10.2018 03:00:00 8,6 5,8 0 0 N - -
15.10.2018 02:00:00 10,2 7,8 0 0 N - 0,0
15.10.2018 01:00:00 9,2 7,1 0 0 N - -
15.10.2018 00:00:00 9,7 6,6 0 0 N - -
14.10.2018 23:00:00 10,9 7,5 0 0 N - -
14.10.2018 22:00:00 11,1 7,2 2 1 W - -
14.10.2018 21:00:00 12,7 7,5 4 2 SW - -
14.10.2018 20:00:00 12,9 6,9 5 3 WSW - 0,0
14.10.2018 19:00:00 16,8 8,2 16 9 E 10 -
14.10.2018 18:00:00 18,3 7,6 15 8 E 10 -
14.10.2018 17:00:00 19,4 6,1 26 14 ESE 10 -
14.10.2018 16:00:00 18,7 7,4 29 16 ESE 10 -

tt = temperature
td = dewpoint
ff = wind speed
dd = wind direction
vv = visibility
rr = precipitation

Next stations